createdAt,value
2023-04-13T00:00:49.145Z,116
2023-04-13T00:01:56.323Z,114
2023-04-13T00:03:03.408Z,115
2023-04-13T00:04:10.249Z,114
2023-04-13T00:05:17.164Z,116
2023-04-13T00:06:23.872Z,115
2023-04-13T00:07:30.744Z,125
2023-04-13T00:08:37.694Z,116
2023-04-13T00:09:44.520Z,115
2023-04-13T00:10:51.323Z,117
2023-04-13T00:11:58.224Z,118
2023-04-13T00:13:05.349Z,119
2023-04-13T00:14:11.941Z,117
2023-04-13T00:15:18.848Z,120
2023-04-13T00:16:25.797Z,121
2023-04-13T00:17:32.712Z,115
2023-04-13T00:18:40.333Z,122
2023-04-13T00:19:47.262Z,122
2023-04-13T00:20:54.095Z,115
2023-04-13T00:22:01.046Z,120
2023-04-13T00:23:07.874Z,116
2023-04-13T00:24:14.729Z,123
2023-04-13T00:25:21.683Z,109
2023-04-13T00:26:28.598Z,119
2023-04-13T00:27:35.494Z,123
2023-04-13T00:28:45.352Z,120
2023-04-13T00:29:52.192Z,124
2023-04-13T00:30:59.207Z,116
2023-04-13T00:32:06.182Z,120
2023-04-13T00:33:13.665Z,121
2023-04-13T00:34:20.547Z,116
2023-04-13T00:35:27.789Z,121
2023-04-13T00:36:37.970Z,120
2023-04-13T00:37:45.023Z,118
2023-04-13T00:38:52.387Z,115
2023-04-13T00:39:59.564Z,117
2023-04-13T00:41:06.817Z,119
2023-04-13T00:42:14.058Z,113
2023-04-13T00:43:22.799Z,117
2023-04-13T00:44:30.017Z,117
2023-04-13T00:45:38.302Z,117
2023-04-13T00:46:46.075Z,114
2023-04-13T00:47:53.358Z,116
2023-04-13T00:49:00.215Z,117
2023-04-13T00:50:07.444Z,113
2023-04-13T00:51:14.493Z,122
2023-04-13T00:52:21.551Z,121
2023-04-13T00:53:29.868Z,117
2023-04-13T00:54:36.956Z,121
2023-04-13T00:55:44.184Z,118
2023-04-13T00:56:51.974Z,117
2023-04-13T00:57:59.386Z,120
2023-04-13T00:59:06.804Z,110
2023-04-13T01:00:16.750Z,121
2023-04-13T01:01:24.396Z,115
2023-04-13T01:02:32.047Z,116
2023-04-13T01:03:39.373Z,110
2023-04-13T01:04:46.373Z,116
2023-04-13T01:05:53.436Z,115
2023-04-13T01:07:10.602Z,113
2023-04-13T01:08:26.987Z,121
2023-04-13T01:09:34.487Z,110
2023-04-13T01:10:49.359Z,121
2023-04-13T01:11:59.500Z,119
2023-04-13T01:13:07.066Z,123
2023-04-13T01:14:14.576Z,112
2023-04-13T01:15:26.941Z,116
2023-04-13T01:16:33.987Z,116
2023-04-13T01:17:44.183Z,114
2023-04-13T01:18:51.480Z,117
2023-04-13T01:19:58.486Z,120
2023-04-13T01:21:11.039Z,116
2023-04-13T01:22:18.694Z,114
2023-04-13T01:23:25.866Z,121
2023-04-13T01:24:40.982Z,122
2023-04-13T01:25:53.884Z,115
2023-04-13T01:27:03.625Z,119
2023-04-13T01:28:10.729Z,118
2023-04-13T01:29:20.281Z,116
2023-04-13T01:30:27.327Z,112
2023-04-13T01:31:35.447Z,120
2023-04-13T01:32:42.652Z,115
2023-04-13T01:33:49.952Z,112
2023-04-13T01:34:57.150Z,114
2023-04-13T01:36:04.187Z,113
2023-04-13T01:37:12.554Z,113
2023-04-13T01:38:19.484Z,125
2023-04-13T01:39:26.439Z,117
2023-04-13T01:40:33.378Z,109
2023-04-13T01:41:43.200Z,108
2023-04-13T01:42:50.308Z,108
2023-04-13T01:43:57.745Z,117
2023-04-13T01:45:04.352Z,108
2023-04-13T01:46:17.525Z,109
2023-04-13T01:47:24.549Z,111
2023-04-13T01:48:31.643Z,114
2023-04-13T01:49:38.485Z,115
2023-04-13T01:50:45.532Z,108
2023-04-13T01:51:52.819Z,116
2023-04-13T01:52:59.655Z,109
2023-04-13T01:54:15.059Z,115
2023-04-13T01:55:22.246Z,108
2023-04-13T01:56:29.147Z,112
2023-04-13T01:57:36.053Z,115
2023-04-13T01:58:42.898Z,114
2023-04-13T01:59:49.805Z,123
2023-04-13T02:00:56.959Z,114
2023-04-13T02:02:03.908Z,115
2023-04-13T02:03:10.887Z,115
2023-04-13T02:04:17.925Z,117
2023-04-13T02:05:24.779Z,121
2023-04-13T02:06:32.577Z,120
2023-04-13T02:07:39.407Z,117
2023-04-13T02:08:46.490Z,119
2023-04-13T02:09:53.296Z,118
2023-04-13T02:11:00.131Z,120
2023-04-13T02:12:07.087Z,122
2023-04-13T02:13:14.151Z,119
2023-04-13T02:14:21.193Z,114
2023-04-13T02:15:28.082Z,120
2023-04-13T02:16:35.003Z,118
2023-04-13T02:17:41.958Z,121
2023-04-13T02:18:48.912Z,114
2023-04-13T02:19:56.797Z,122
2023-04-13T02:21:03.674Z,118
2023-04-13T02:22:13.602Z,117
2023-04-13T02:23:20.403Z,112
2023-04-13T02:24:27.218Z,118
2023-04-13T02:25:34.363Z,122
2023-04-13T02:26:41.448Z,116
2023-04-13T02:27:48.277Z,121
2023-04-13T02:28:55.274Z,116
2023-04-13T02:30:04.316Z,117
2023-04-13T02:31:11.444Z,119
2023-04-13T02:32:18.288Z,114
2023-04-13T02:33:25.152Z,112
2023-04-13T02:34:31.998Z,122
2023-04-13T02:35:38.914Z,118
2023-04-13T02:36:45.690Z,111
2023-04-13T02:37:52.480Z,117
2023-04-13T02:38:59.378Z,115
2023-04-13T02:40:06.252Z,111
2023-04-13T02:41:13.142Z,118
2023-04-13T02:42:20.005Z,118
2023-04-13T02:43:26.827Z,115
2023-04-13T02:44:33.768Z,121
2023-04-13T02:45:43.196Z,119
2023-04-13T02:46:49.960Z,121
2023-04-13T02:47:56.783Z,120
2023-04-13T02:49:03.544Z,114
2023-04-13T02:50:10.403Z,120
2023-04-13T02:51:17.308Z,117
2023-04-13T02:52:24.160Z,118
2023-04-13T02:53:31.082Z,125
2023-04-13T02:54:37.832Z,115
2023-04-13T02:55:44.678Z,119
2023-04-13T02:56:51.596Z,116
2023-04-13T02:57:58.477Z,115
2023-04-13T02:59:05.336Z,114
2023-04-13T03:00:12.164Z,117
2023-04-13T03:01:19.163Z,117
2023-04-13T03:02:26.301Z,117
2023-04-13T03:03:33.190Z,118
2023-04-13T03:04:40.050Z,114
2023-04-13T03:05:46.860Z,119
2023-04-13T03:06:56.782Z,111
2023-04-13T03:08:03.707Z,119
2023-04-13T03:09:10.811Z,115
2023-04-13T03:10:17.788Z,118
2023-04-13T03:11:24.996Z,115
2023-04-13T03:12:31.819Z,117
2023-04-13T03:13:38.675Z,116
2023-04-13T03:14:46.570Z,116
2023-04-13T03:15:53.514Z,114
2023-04-13T03:17:00.529Z,109
2023-04-13T03:18:07.396Z,108
2023-04-13T03:19:14.232Z,108
2023-04-13T03:20:21.892Z,115
2023-04-13T03:21:28.899Z,110
2023-04-13T03:22:35.937Z,111
2023-04-13T03:23:42.816Z,106
2023-04-13T03:24:49.656Z,109
2023-04-13T03:25:56.509Z,106
2023-04-13T03:27:03.303Z,111
2023-04-13T03:28:10.400Z,109
2023-04-13T03:29:17.247Z,114
2023-04-13T03:30:24.112Z,105
2023-04-13T03:31:30.983Z,116
2023-04-13T03:32:37.771Z,110
2023-04-13T03:33:44.747Z,114
2023-04-13T03:34:51.539Z,111
2023-04-13T03:35:58.338Z,110
2023-04-13T03:37:05.169Z,116
2023-04-13T03:38:12.086Z,104
2023-04-13T03:39:18.973Z,116
2023-04-13T03:40:25.891Z,115
2023-04-13T03:41:32.653Z,111
2023-04-13T03:42:39.457Z,117
2023-04-13T03:43:46.281Z,114
2023-04-13T03:44:53.138Z,118
2023-04-13T03:46:00.066Z,128
2023-04-13T03:47:06.884Z,119
2023-04-13T03:48:13.755Z,108
2023-04-13T03:49:20.567Z,108
2023-04-13T03:50:27.557Z,113
2023-04-13T03:51:34.364Z,115
2023-04-13T03:52:41.434Z,118
2023-04-13T03:53:48.192Z,114
2023-04-13T03:54:55.202Z,115
2023-04-13T03:56:02.045Z,122
2023-04-13T03:57:09.251Z,115
2023-04-13T03:58:16.102Z,121
2023-04-13T03:59:22.943Z,114
2023-04-13T04:00:29.791Z,115
2023-04-13T04:01:39.742Z,114
2023-04-13T04:02:49.397Z,118
2023-04-13T04:03:56.317Z,116
2023-04-13T04:05:03.254Z,113
2023-04-13T04:06:10.285Z,112
2023-04-13T04:07:17.125Z,115
2023-04-13T04:08:23.952Z,114
2023-04-13T04:09:30.826Z,116
2023-04-13T04:10:37.828Z,113
2023-04-13T04:11:44.690Z,107
2023-04-13T04:12:51.580Z,109
2023-04-13T04:13:58.522Z,110
2023-04-13T04:15:05.208Z,108
2023-04-13T04:16:12.439Z,112
2023-04-13T04:17:19.172Z,107
2023-04-13T04:18:26.069Z,110
2023-04-13T04:19:32.904Z,106
2023-04-13T04:20:39.764Z,106
2023-04-13T04:21:46.740Z,103
2023-04-13T04:22:53.700Z,99
2023-04-13T04:24:00.729Z,101
2023-04-13T04:25:07.423Z,99
2023-04-13T04:26:14.217Z,97
2023-04-13T04:27:21.269Z,95
2023-04-13T04:28:28.172Z,101
2023-04-13T04:29:35.025Z,94
2023-04-13T04:30:41.851Z,101
2023-04-13T04:31:48.761Z,99
2023-04-13T04:32:55.653Z,104
2023-04-13T04:34:02.571Z,98
2023-04-13T04:35:09.388Z,99
2023-04-13T04:36:16.274Z,99
2023-04-13T04:37:23.105Z,95
2023-04-13T04:38:29.920Z,96
2023-04-13T04:39:36.829Z,104
2023-04-13T04:40:43.691Z,96
2023-04-13T04:41:50.548Z,94
2023-04-13T04:43:00.379Z,97
2023-04-13T04:44:07.235Z,96
2023-04-13T04:45:14.181Z,92
2023-04-13T04:46:21.433Z,104
2023-04-13T04:47:28.017Z,97
2023-04-13T04:48:34.894Z,96
2023-04-13T04:49:41.739Z,97
2023-04-13T04:50:48.616Z,95
2023-04-13T04:51:55.513Z,107
2023-04-13T04:53:02.359Z,105
2023-04-13T04:54:09.176Z,106
2023-04-13T04:55:16.072Z,105
2023-04-13T04:56:22.829Z,105
2023-04-13T04:57:29.893Z,98
2023-04-13T04:58:36.678Z,100
2023-04-13T04:59:43.580Z,95
2023-04-13T05:00:50.390Z,87
2023-04-13T05:01:57.265Z,94
2023-04-13T05:03:04.085Z,90
2023-04-13T05:04:10.882Z,95
2023-04-13T05:05:17.785Z,88
2023-04-13T05:06:24.565Z,89
2023-04-13T05:07:31.345Z,89
2023-04-13T05:08:38.275Z,89
2023-04-13T05:09:45.150Z,89
2023-04-13T05:10:52.032Z,90
2023-04-13T05:11:58.795Z,96
2023-04-13T05:13:05.646Z,87
2023-04-13T05:14:12.640Z,87
2023-04-13T05:15:20.512Z,88
2023-04-13T05:16:27.399Z,91
2023-04-13T05:17:34.220Z,90
2023-04-13T05:18:41.007Z,84
2023-04-13T05:19:47.884Z,80
2023-04-13T05:20:54.860Z,78
2023-04-13T05:22:01.665Z,82
2023-04-13T05:23:08.448Z,88
2023-04-13T05:24:15.203Z,94
2023-04-13T05:25:22.080Z,91
2023-04-13T05:26:29.065Z,90
2023-04-13T05:27:35.871Z,84
2023-04-13T05:28:42.691Z,77
2023-04-13T05:29:49.495Z,83
2023-04-13T05:30:56.318Z,81
2023-04-13T05:32:08.448Z,77
2023-04-13T05:33:15.180Z,83
2023-04-13T05:34:22.007Z,74
2023-04-13T05:35:28.879Z,76
2023-04-13T05:36:35.717Z,75
2023-04-13T05:37:42.500Z,71
2023-04-13T05:38:49.451Z,81
2023-04-13T05:39:56.351Z,69
2023-04-13T05:41:03.150Z,70
2023-04-13T05:42:10.093Z,71
2023-04-13T05:43:16.823Z,64
2023-04-13T05:44:23.800Z,62
2023-04-13T05:45:30.745Z,64
2023-04-13T05:46:37.514Z,67
2023-04-13T05:47:44.328Z,63
2023-04-13T05:48:51.126Z,60
2023-04-13T05:49:58.082Z,66
2023-04-13T05:51:05.027Z,67
2023-04-13T05:52:11.852Z,62
2023-04-13T05:53:18.680Z,58
2023-04-13T05:54:25.523Z,60
2023-04-13T05:55:32.406Z,55
2023-04-13T05:56:39.284Z,55
2023-04-13T05:57:46.105Z,57
2023-04-13T05:58:52.911Z,65
2023-04-13T05:59:59.715Z,62
2023-04-13T06:01:06.714Z,62
2023-04-13T06:02:13.730Z,55
2023-04-13T06:03:20.749Z,57
2023-04-13T06:04:27.638Z,58
2023-04-13T06:05:34.062Z,54
2023-04-13T06:06:40.960Z,51
2023-04-13T06:07:47.901Z,45
2023-04-13T06:08:54.827Z,46
2023-04-13T06:10:01.691Z,42
2023-04-13T06:11:08.735Z,46
2023-04-13T06:12:15.648Z,43
2023-04-13T06:13:22.462Z,39
2023-04-13T06:14:29.223Z,31
2023-04-13T06:15:36.258Z,34
2023-04-13T06:16:43.069Z,34
2023-04-13T06:17:50.091Z,25
2023-04-13T06:18:57.065Z,31
2023-04-13T06:20:03.650Z,26
2023-04-13T06:21:10.866Z,26
2023-04-13T06:22:17.676Z,35
2023-04-13T06:23:24.628Z,27
2023-04-13T06:24:31.394Z,26
2023-04-13T06:25:38.107Z,25
2023-04-13T06:26:44.961Z,38
2023-04-13T06:27:51.828Z,42
2023-04-13T06:28:58.922Z,39
2023-04-13T06:30:05.494Z,49
2023-04-13T06:31:13.639Z,25
2023-04-13T06:32:19.405Z,25
2023-04-13T06:33:26.191Z,28
2023-04-13T06:34:33.106Z,27
2023-04-13T06:35:39.993Z,29
2023-04-13T06:36:46.794Z,37
2023-04-13T06:37:54.624Z,25
2023-04-13T06:39:04.264Z,32
2023-04-13T06:40:11.092Z,32
2023-04-13T06:41:17.987Z,32
2023-04-13T06:42:24.868Z,31
2023-04-13T06:43:31.644Z,30
2023-04-13T06:44:38.611Z,28
2023-04-13T06:45:45.487Z,34
2023-04-13T06:46:52.386Z,30
2023-04-13T06:47:59.466Z,25
2023-04-13T06:49:06.196Z,28
2023-04-13T06:50:13.000Z,30
2023-04-13T06:51:19.852Z,40
2023-04-13T06:52:26.770Z,33
2023-04-13T06:53:33.883Z,29
2023-04-13T06:54:40.724Z,27
2023-04-13T06:55:48.036Z,29
2023-04-13T06:56:54.892Z,30
2023-04-13T06:58:01.976Z,32
2023-04-13T06:59:09.176Z,29
2023-04-13T07:00:28.724Z,30
2023-04-13T07:01:22.808Z,31
2023-04-13T07:02:29.594Z,29
2023-04-13T07:03:36.659Z,26
2023-04-13T07:04:43.561Z,25
2023-04-13T07:05:50.222Z,30
2023-04-13T07:06:57.058Z,25
2023-04-13T07:08:03.894Z,26
2023-04-13T07:09:10.787Z,25
2023-04-13T07:10:17.666Z,32
2023-04-13T07:11:25.839Z,28
2023-04-13T07:12:32.632Z,25
2023-04-13T07:13:39.378Z,26
2023-04-13T07:14:46.169Z,30
2023-04-13T07:15:53.129Z,35
2023-04-13T07:16:59.924Z,48
2023-04-13T07:18:06.693Z,33
2023-04-13T07:19:13.478Z,25
2023-04-13T07:20:20.284Z,29
2023-04-13T07:21:28.052Z,36
2023-04-13T07:22:34.955Z,26
2023-04-13T07:23:41.748Z,25
2023-04-13T07:24:48.515Z,33
2023-04-13T07:25:55.348Z,25
2023-04-13T07:27:02.302Z,26
2023-04-13T07:28:10.083Z,44
2023-04-13T07:29:16.872Z,31
2023-04-13T07:30:23.673Z,26
2023-04-13T07:31:30.584Z,39
2023-04-13T07:32:37.462Z,33
2023-04-13T07:33:44.379Z,31
2023-04-13T07:34:51.314Z,29
2023-04-13T07:35:58.178Z,28
2023-04-13T07:37:05.271Z,25
2023-04-13T07:38:12.303Z,36
2023-04-13T07:39:19.223Z,36
2023-04-13T07:40:26.073Z,34
2023-04-13T07:41:33.387Z,31
2023-04-13T07:42:40.240Z,25
2023-04-13T07:43:47.391Z,35
2023-04-13T07:44:54.323Z,45
2023-04-13T07:46:01.540Z,42
2023-04-13T07:47:14.608Z,36
2023-04-13T07:48:22.181Z,31
2023-04-13T07:49:29.047Z,34
2023-04-13T07:50:35.840Z,26
2023-04-13T07:51:45.324Z,33
2023-04-13T07:52:52.148Z,26
2023-04-13T07:53:59.082Z,41
2023-04-13T07:55:05.958Z,52
2023-04-13T07:56:12.822Z,29
2023-04-13T07:57:19.751Z,36
2023-04-13T07:58:26.587Z,35
2023-04-13T07:59:33.623Z,25
2023-04-13T08:00:40.467Z,25
2023-04-13T08:01:47.337Z,25
2023-04-13T08:02:54.279Z,35
2023-04-13T08:04:01.095Z,25
2023-04-13T08:05:08.151Z,31
2023-04-13T08:06:14.963Z,33
2023-04-13T08:07:21.814Z,48
2023-04-13T08:08:28.647Z,56
2023-04-13T08:09:35.549Z,26
2023-04-13T08:10:42.583Z,28
2023-04-13T08:11:49.432Z,37
2023-04-13T08:12:56.272Z,41
2023-04-13T08:14:04.027Z,51
2023-04-13T08:15:10.754Z,48
2023-04-13T08:16:17.796Z,45
2023-04-13T08:17:24.552Z,35
2023-04-13T08:18:31.378Z,25
2023-04-13T08:19:38.095Z,27
2023-04-13T08:20:44.926Z,36
2023-04-13T08:21:52.006Z,41
2023-04-13T08:22:58.994Z,40
2023-04-13T08:24:06.650Z,35
2023-04-13T08:25:13.482Z,31
2023-04-13T08:26:20.459Z,30
2023-04-13T08:27:27.292Z,28
2023-04-13T08:28:34.171Z,27
2023-04-13T08:29:41.020Z,31
2023-04-13T08:30:47.858Z,42
2023-04-13T08:31:54.815Z,46
2023-04-13T08:33:02.777Z,30
2023-04-13T08:34:09.583Z,46
2023-04-13T08:35:16.386Z,40
2023-04-13T08:36:23.239Z,36
2023-04-13T08:37:30.074Z,25
2023-04-13T08:38:36.989Z,31
2023-04-13T08:39:43.894Z,25
2023-04-13T08:40:50.720Z,30
2023-04-13T08:41:57.847Z,54
2023-04-13T08:43:04.485Z,38
2023-04-13T08:44:11.304Z,31
2023-04-13T08:45:18.197Z,34
2023-04-13T08:46:25.206Z,38
2023-04-13T08:47:32.279Z,49
2023-04-13T08:48:50.339Z,49
2023-04-13T08:49:45.696Z,26
2023-04-13T08:50:52.516Z,39
2023-04-13T08:51:59.445Z,28
2023-04-13T08:53:06.297Z,25
2023-04-13T08:54:13.244Z,28
2023-04-13T08:55:19.988Z,33
2023-04-13T08:56:38.053Z,37
2023-04-13T08:57:33.848Z,34
2023-04-13T08:58:40.711Z,63
2023-04-13T08:59:47.572Z,51
2023-04-13T09:00:54.416Z,40
2023-04-13T09:02:01.337Z,39
2023-04-13T09:03:10.466Z,25
2023-04-13T09:04:16.049Z,25
2023-04-13T09:05:22.998Z,34
2023-04-13T09:06:29.476Z,27
2023-04-13T09:07:36.448Z,42
2023-04-13T09:08:43.314Z,37
2023-04-13T09:09:50.222Z,27
2023-04-13T09:10:59.842Z,50
2023-04-13T09:12:06.741Z,41
2023-04-13T09:13:13.579Z,44
2023-04-13T09:14:20.518Z,63
2023-04-13T09:15:27.237Z,54
2023-04-13T09:16:34.116Z,56
2023-04-13T09:17:44.053Z,40
2023-04-13T09:18:50.864Z,28
2023-04-13T09:19:57.679Z,36
2023-04-13T09:21:14.810Z,41
2023-04-13T09:22:22.433Z,25
2023-04-13T09:23:29.301Z,40
2023-04-13T09:24:36.255Z,43
2023-04-13T09:25:43.182Z,31
2023-04-13T09:26:49.916Z,38
2023-04-13T09:27:56.699Z,37
2023-04-13T09:29:03.575Z,47
2023-04-13T09:30:10.404Z,34
2023-04-13T09:31:17.421Z,35
2023-04-13T09:32:24.238Z,29
2023-04-13T09:33:30.970Z,26
2023-04-13T09:34:37.803Z,40
2023-04-13T09:35:44.755Z,41
2023-04-13T09:36:54.426Z,35
2023-04-13T09:37:58.460Z,32
2023-04-13T09:39:05.285Z,43
2023-04-13T09:40:12.183Z,31
2023-04-13T09:41:19.355Z,37
2023-04-13T09:42:31.518Z,47
2023-04-13T09:43:38.500Z,33
2023-04-13T09:44:45.361Z,25
2023-04-13T09:46:00.223Z,27
2023-04-13T09:47:07.084Z,40
2023-04-13T09:48:13.848Z,41
2023-04-13T09:49:20.627Z,34
2023-04-13T09:50:27.479Z,54
2023-04-13T09:51:34.339Z,51
2023-04-13T09:52:44.248Z,26
2023-04-13T09:53:51.002Z,51
2023-04-13T09:54:57.802Z,29
2023-04-13T09:56:04.732Z,27
2023-04-13T09:57:11.524Z,43
2023-04-13T09:58:18.497Z,41
2023-04-13T09:59:25.443Z,30
2023-04-13T10:00:32.236Z,38
2023-04-13T10:01:39.209Z,49
2023-04-13T10:02:46.306Z,53
2023-04-13T10:03:52.848Z,36
2023-04-13T10:04:59.637Z,63
2023-04-13T10:06:06.494Z,33
2023-04-13T10:07:13.300Z,35
2023-04-13T10:08:24.459Z,35
2023-04-13T10:09:27.075Z,40
2023-04-13T10:10:33.840Z,33
2023-04-13T10:11:40.674Z,47
2023-04-13T10:12:49.932Z,29
2023-04-13T10:14:00.557Z,32
2023-04-13T10:15:07.330Z,35
2023-04-13T10:16:24.549Z,34
2023-04-13T10:17:41.717Z,45
2023-04-13T10:18:54.066Z,60
2023-04-13T10:20:00.912Z,48
2023-04-13T10:21:13.474Z,71
2023-04-13T10:22:20.367Z,47
2023-04-13T10:23:28.542Z,35
2023-04-13T10:24:38.093Z,42
2023-04-13T10:25:45.061Z,44
2023-04-13T10:26:54.543Z,43
2023-04-13T10:28:01.405Z,48
2023-04-13T10:29:08.317Z,45
2023-04-13T10:30:15.203Z,40
2023-04-13T10:31:22.096Z,43
2023-04-13T10:32:39.227Z,45
2023-04-13T10:33:46.008Z,40
2023-04-13T10:34:54.939Z,31
2023-04-13T10:36:01.775Z,44
2023-04-13T10:37:08.884Z,43
2023-04-13T10:38:20.816Z,41
2023-04-13T10:39:27.832Z,46
2023-04-13T10:40:34.571Z,55
2023-04-13T10:41:46.671Z,47
2023-04-13T10:43:01.436Z,40
2023-04-13T10:44:08.378Z,39
2023-04-13T10:45:15.300Z,47
2023-04-13T10:46:30.044Z,40
2023-04-13T10:47:36.883Z,47
2023-04-13T10:48:43.739Z,40
2023-04-13T10:49:50.565Z,58
2023-04-13T10:50:57.361Z,44
2023-04-13T10:52:04.168Z,47
2023-04-13T10:53:11.029Z,41
2023-04-13T10:54:18.015Z,37
2023-04-13T10:55:24.891Z,45
2023-04-13T10:56:31.651Z,39
2023-04-13T10:57:38.505Z,43
2023-04-13T10:58:45.351Z,48
2023-04-13T10:59:59.055Z,44
2023-04-13T11:01:01.935Z,50
2023-04-13T11:02:08.773Z,30
2023-04-13T11:03:16.644Z,30
2023-04-13T11:04:22.536Z,33
2023-04-13T11:05:29.343Z,26
2023-04-13T11:06:36.169Z,42
2023-04-13T11:07:43.009Z,52
2023-04-13T11:08:49.974Z,25
2023-04-13T11:10:02.715Z,29
2023-04-13T11:11:03.761Z,44
2023-04-13T11:12:10.613Z,47
2023-04-13T11:13:22.758Z,42
2023-04-13T11:14:29.760Z,34
2023-04-13T11:15:37.396Z,32
2023-04-13T11:16:44.260Z,37
2023-04-13T11:17:51.039Z,42
2023-04-13T11:18:58.137Z,37
2023-04-13T11:20:05.007Z,44
2023-04-13T11:21:12.024Z,33
2023-04-13T11:22:18.841Z,30
2023-04-13T11:23:28.429Z,32
2023-04-13T11:24:35.425Z,38
2023-04-13T11:25:43.161Z,30
2023-04-13T11:26:58.243Z,49
2023-04-13T11:28:05.031Z,29
2023-04-13T11:29:12.747Z,35
2023-04-13T11:30:23.427Z,40
2023-04-13T11:31:30.409Z,31
2023-04-13T11:32:43.336Z,37
2023-04-13T11:33:49.878Z,40
2023-04-13T11:34:56.746Z,39
2023-04-13T11:36:12.195Z,33
2023-04-13T11:37:18.885Z,38
2023-04-13T11:38:25.824Z,41
2023-04-13T11:39:32.655Z,41
2023-04-13T11:40:39.600Z,31
2023-04-13T11:41:46.408Z,33
2023-04-13T11:42:53.242Z,34
2023-04-13T11:44:00.200Z,32
2023-04-13T11:45:07.116Z,30
2023-04-13T11:46:17.788Z,32
2023-04-13T11:47:27.902Z,31
2023-04-13T11:48:34.681Z,32
2023-04-13T11:49:41.548Z,33
2023-04-13T11:50:48.400Z,32
2023-04-13T11:51:55.259Z,32
2023-04-13T11:53:02.275Z,29
2023-04-13T11:54:09.072Z,29
2023-04-13T11:55:22.854Z,35
2023-04-13T11:56:23.869Z,33
2023-04-13T11:57:31.625Z,25
2023-04-13T11:58:38.673Z,31
2023-04-13T11:59:45.568Z,28
2023-04-13T12:00:52.464Z,34
2023-04-13T12:02:03.937Z,27
2023-04-13T12:03:22.844Z,37
2023-04-13T12:04:16.731Z,39
2023-04-13T12:05:24.044Z,31
2023-04-13T12:06:33.915Z,28
2023-04-13T12:07:40.837Z,32
2023-04-13T12:08:54.702Z,30
2023-04-13T12:09:59.141Z,33
2023-04-13T12:12:46.050Z,32
2023-04-13T12:13:33.475Z,33
2023-04-13T12:15:43.869Z,39
2023-04-13T12:17:03.634Z,36
2023-04-13T12:17:57.130Z,35
2023-04-13T12:18:59.997Z,27
2023-04-13T12:20:11.972Z,43
2023-04-13T12:21:17.428Z,36
2023-04-13T12:22:24.265Z,34
2023-04-13T12:23:41.598Z,42
2023-04-13T12:24:56.853Z,41
2023-04-13T12:26:18.708Z,39
2023-04-13T12:28:17.122Z,46
2023-04-13T12:29:23.982Z,55
2023-04-13T12:30:30.894Z,49
2023-04-13T12:31:37.781Z,41
2023-04-13T12:32:44.489Z,47
2023-04-13T12:33:54.090Z,50
2023-04-13T12:35:00.829Z,50
2023-04-13T12:36:07.817Z,53
2023-04-13T12:37:16.491Z,59
2023-04-13T12:38:23.261Z,57
2023-04-13T12:39:31.550Z,68
2023-04-13T12:40:38.373Z,69
2023-04-13T12:41:45.281Z,72
2023-04-13T12:42:52.082Z,77
2023-04-13T12:43:58.954Z,81
2023-04-13T12:45:08.409Z,79
2023-04-13T12:46:15.431Z,88
2023-04-13T12:47:22.464Z,97
2023-04-13T12:48:29.381Z,106
2023-04-13T12:49:36.216Z,117
2023-04-13T12:50:43.875Z,121
2023-04-13T12:51:50.795Z,130
2023-04-13T12:52:57.689Z,133
2023-04-13T12:54:04.668Z,141
2023-04-13T12:55:12.912Z,144
2023-04-13T12:56:19.778Z,161
2023-04-13T12:57:26.796Z,172
2023-04-13T12:58:35.533Z,183
2023-04-13T12:59:42.297Z,196
2023-04-13T13:00:49.407Z,208
2023-04-13T13:01:56.214Z,212
2023-04-13T13:03:13.294Z,216
2023-04-13T13:04:11.948Z,230
2023-04-13T13:05:18.729Z,230
2023-04-13T13:06:25.647Z,235
2023-04-13T13:07:32.558Z,234
2023-04-13T13:08:40.322Z,245
2023-04-13T13:09:46.167Z,243
2023-04-13T13:10:52.924Z,246
2023-04-13T13:11:59.831Z,252
2023-04-13T13:13:06.688Z,249
2023-04-13T13:14:13.559Z,254
2023-04-13T13:15:21.239Z,253
2023-04-13T13:16:28.153Z,255
2023-04-13T13:17:35.597Z,266
2023-04-13T13:18:50.752Z,274
2023-04-13T13:19:51.810Z,264
2023-04-13T13:20:58.739Z,263
2023-04-13T13:22:05.580Z,253
2023-04-13T13:23:12.494Z,251
2023-04-13T13:24:19.361Z,251
2023-04-13T13:25:26.368Z,247
2023-04-13T13:26:53.104Z,241
2023-04-13T13:28:10.021Z,233
2023-04-13T13:28:49.858Z,233
2023-04-13T13:29:56.767Z,226
2023-04-13T13:31:03.661Z,211
2023-04-13T13:32:10.821Z,207
2023-04-13T13:33:17.720Z,201
2023-04-13T13:34:24.483Z,207
2023-04-13T13:35:31.392Z,197
2023-04-13T13:36:38.288Z,210
2023-04-13T13:37:45.323Z,197
2023-04-13T13:38:52.209Z,197
2023-04-13T13:39:59.055Z,191
2023-04-13T13:41:05.861Z,190
2023-04-13T13:42:12.650Z,187
2023-04-13T13:43:19.581Z,185
2023-04-13T13:44:26.398Z,190
2023-04-13T13:45:33.319Z,184
2023-04-13T13:46:40.155Z,180
2023-04-13T13:47:47.062Z,189
2023-04-13T13:48:53.957Z,181
2023-04-13T13:50:00.755Z,188
2023-04-13T13:51:08.036Z,197
2023-04-13T13:52:14.638Z,193
2023-04-13T13:53:21.431Z,184
2023-04-13T13:54:28.339Z,186
2023-04-13T13:55:35.378Z,187
2023-04-13T13:56:43.184Z,177
2023-04-13T13:57:50.027Z,189
2023-04-13T13:58:56.946Z,186
2023-04-13T14:00:03.716Z,192
2023-04-13T14:01:16.273Z,183
2023-04-13T14:02:24.348Z,180
2023-04-13T14:03:34.263Z,184
2023-04-13T14:04:41.310Z,185
2023-04-13T14:05:48.198Z,175
2023-04-13T14:06:55.041Z,186
2023-04-13T14:08:01.881Z,180
2023-04-13T14:09:08.888Z,179
2023-04-13T14:10:15.839Z,171
2023-04-13T14:11:22.773Z,177
2023-04-13T14:12:29.654Z,178
2023-04-13T14:13:36.563Z,189
2023-04-13T14:14:43.433Z,200
2023-04-13T14:15:50.343Z,195
2023-04-13T14:16:57.966Z,194
2023-04-13T14:18:09.651Z,198
2023-04-13T14:19:11.803Z,209
2023-04-13T14:20:18.661Z,209
2023-04-13T14:21:25.578Z,217
2023-04-13T14:22:32.498Z,213
2023-04-13T14:23:42.087Z,206
2023-04-13T14:24:48.957Z,209
2023-04-13T14:25:55.815Z,211
2023-04-13T14:27:02.768Z,209
2023-04-13T14:28:09.657Z,217
2023-04-13T14:29:16.572Z,208
2023-04-13T14:30:25.031Z,219
2023-04-13T14:31:34.487Z,225
2023-04-13T14:32:44.044Z,210
2023-04-13T14:33:53.176Z,242
2023-04-13T14:35:00.055Z,241
2023-04-13T14:36:07.306Z,228
2023-04-13T14:37:14.221Z,216
2023-04-13T14:38:23.388Z,209
2023-04-13T14:39:30.324Z,203
2023-04-13T14:40:37.191Z,218
2023-04-13T14:41:44.012Z,206
2023-04-13T14:42:50.916Z,217
2023-04-13T14:43:57.620Z,210
2023-04-13T14:45:05.684Z,204
2023-04-13T14:46:12.859Z,194
2023-04-13T14:47:19.935Z,202
2023-04-13T14:48:28.922Z,198
2023-04-13T14:49:35.797Z,191
2023-04-13T14:50:42.752Z,186
2023-04-13T14:51:52.872Z,182
2023-04-13T14:52:59.857Z,204
2023-04-13T14:54:11.946Z,184
2023-04-13T14:55:21.166Z,168
2023-04-13T14:56:29.351Z,180
2023-04-13T14:57:36.262Z,166
2023-04-13T14:58:43.289Z,187
2023-04-13T14:59:50.202Z,161
2023-04-13T15:00:57.147Z,177
2023-04-13T15:02:07.236Z,160
2023-04-13T15:03:15.256Z,149
2023-04-13T15:04:22.033Z,149
2023-04-13T15:05:29.122Z,146
2023-04-13T15:06:44.127Z,141
2023-04-13T15:07:51.298Z,138
2023-04-13T15:08:58.458Z,144
2023-04-13T15:10:05.148Z,139
2023-04-13T15:11:14.788Z,133
2023-04-13T15:12:21.734Z,152
2023-04-13T15:13:30.884Z,140
2023-04-13T15:14:37.845Z,134
2023-04-13T15:15:44.875Z,143
2023-04-13T15:16:53.973Z,130
2023-04-13T15:18:02.735Z,130
2023-04-13T15:19:07.965Z,124
2023-04-13T15:20:14.873Z,123
2023-04-13T15:21:23.231Z,115
2023-04-13T15:22:30.260Z,113
2023-04-13T15:23:40.238Z,133
2023-04-13T15:24:47.202Z,105
2023-04-13T15:25:54.099Z,109
2023-04-13T15:27:04.524Z,135
2023-04-13T15:28:11.378Z,113
2023-04-13T15:29:18.367Z,118
2023-04-13T15:30:25.383Z,105
2023-04-13T15:31:32.413Z,117
2023-04-13T15:32:40.460Z,100
2023-04-13T15:33:47.335Z,100
2023-04-13T15:34:54.196Z,105
2023-04-13T15:36:01.045Z,105
2023-04-13T15:37:08.028Z,123
2023-04-13T15:38:15.039Z,130
2023-04-13T15:39:22.215Z,131
2023-04-13T15:40:33.622Z,126
2023-04-13T15:41:40.465Z,128
2023-04-13T15:42:47.516Z,121
2023-04-13T15:43:55.110Z,130
2023-04-13T15:45:02.013Z,127
2023-04-13T15:46:09.354Z,124
2023-04-13T15:47:20.916Z,124
2023-04-13T15:48:27.912Z,125
2023-04-13T15:49:34.913Z,118